createdAt,value
2022-11-09T00:02:24.216Z,14.13
2022-11-09T00:04:52.955Z,13.60
2022-11-09T00:07:21.788Z,15.10
2022-11-09T00:09:52.060Z,14.30
2022-11-09T00:12:20.940Z,13.67
2022-11-09T00:14:49.808Z,13.73
2022-11-09T00:17:18.550Z,13.57
2022-11-09T00:19:47.409Z,13.73
2022-11-09T00:22:34.743Z,13.33
2022-11-09T00:25:05.076Z,13.70
2022-11-09T00:27:33.806Z,14.47
2022-11-09T00:30:02.605Z,13.50
2022-11-09T00:32:31.431Z,13.43
2022-11-09T00:35:00.206Z,12.87
2022-11-09T00:37:47.812Z,14.30
2022-11-09T00:40:18.290Z,12.90
2022-11-09T00:42:47.509Z,12.53
2022-11-09T00:45:18.079Z,13.37
2022-11-09T00:47:46.853Z,12.30
2022-11-09T00:50:35.023Z,13.17
2022-11-09T00:53:03.862Z,12.60
2022-11-09T00:55:34.208Z,13.13
2022-11-09T00:58:04.154Z,12.83
2022-11-09T01:00:33.089Z,12.17
2022-11-09T01:03:02.130Z,13.10
2022-11-09T01:05:30.971Z,12.07
2022-11-09T01:07:59.726Z,12.33
2022-11-09T01:10:28.543Z,11.90
2022-11-09T01:12:58.851Z,12.90
2022-11-09T01:15:29.343Z,11.80
2022-11-09T01:17:58.201Z,11.57
2022-11-09T01:20:45.156Z,11.73
2022-11-09T01:23:15.217Z,11.70
2022-11-09T01:25:44.528Z,13.00
2022-11-09T01:28:14.696Z,12.40
2022-11-09T01:31:02.894Z,12.10
2022-11-09T01:33:34.319Z,12.93
2022-11-09T01:36:05.939Z,11.00
2022-11-09T01:38:34.979Z,12.30
2022-11-09T01:41:22.318Z,11.87
2022-11-09T01:44:14.340Z,11.50
2022-11-09T01:46:52.091Z,12.40
2022-11-09T01:49:37.478Z,11.70
2022-11-09T01:52:09.227Z,11.23
2022-11-09T01:54:41.344Z,12.03
2022-11-09T01:57:15.265Z,11.60
2022-11-09T02:00:07.605Z,11.43
2022-11-09T02:02:45.684Z,11.80
2022-11-09T02:05:19.103Z,11.83
2022-11-09T02:08:10.172Z,11.70
2022-11-09T02:10:45.052Z,12.37
2022-11-09T02:13:17.746Z,11.67
2022-11-09T02:15:49.094Z,12.60
2022-11-09T02:18:18.642Z,12.33
2022-11-09T02:20:50.733Z,13.10
2022-11-09T02:23:20.532Z,12.23
2022-11-09T02:25:54.581Z,12.87
2022-11-09T02:28:24.425Z,12.40
2022-11-09T02:30:55.828Z,12.33
2022-11-09T02:33:25.741Z,11.97
2022-11-09T02:35:56.767Z,11.80
2022-11-09T02:38:25.402Z,12.10
2022-11-09T02:40:54.842Z,12.07
2022-11-09T02:43:24.769Z,12.27
2022-11-09T02:45:55.390Z,11.67
2022-11-09T02:48:24.015Z,12.10
2022-11-09T02:50:53.030Z,11.37
2022-11-09T02:53:23.873Z,12.63
2022-11-09T02:55:52.591Z,12.37
2022-11-09T02:58:21.284Z,11.60
2022-11-09T03:00:49.962Z,11.93
2022-11-09T03:03:18.970Z,12.50
2022-11-09T03:05:47.966Z,11.67
2022-11-09T03:08:16.635Z,12.33
2022-11-09T03:10:48.631Z,12.50
2022-11-09T03:13:17.826Z,11.90
2022-11-09T03:15:46.583Z,11.93
2022-11-09T03:18:16.395Z,11.80
2022-11-09T03:20:45.054Z,12.90
2022-11-09T03:23:17.630Z,12.57
2022-11-09T03:25:50.110Z,11.57
2022-11-09T03:28:19.189Z,11.80
2022-11-09T03:30:50.919Z,11.70
2022-11-09T03:33:20.076Z,11.90
2022-11-09T03:35:48.935Z,10.97
2022-11-09T03:38:20.190Z,11.33
2022-11-09T03:40:51.305Z,10.83
2022-11-09T03:43:20.257Z,12.67
2022-11-09T03:45:49.517Z,11.67
2022-11-09T03:48:18.051Z,11.17
2022-11-09T03:50:47.823Z,10.97
2022-11-09T03:53:16.453Z,11.30
2022-11-09T03:55:45.236Z,11.73
2022-11-09T03:58:15.336Z,11.80
2022-11-09T04:00:43.913Z,11.00
2022-11-09T04:03:14.510Z,11.40
2022-11-09T04:05:43.064Z,11.27
2022-11-09T04:08:11.609Z,11.10
2022-11-09T04:10:40.194Z,11.20
2022-11-09T04:13:10.771Z,11.47
2022-11-09T04:15:40.715Z,10.90
2022-11-09T04:18:12.398Z,11.37
2022-11-09T04:20:40.996Z,15.83
2022-11-09T04:23:13.100Z,18.23
2022-11-09T04:25:42.714Z,14.93
2022-11-09T04:28:20.451Z,12.37
2022-11-09T04:30:50.481Z,10.93
2022-11-09T04:33:19.176Z,10.97
2022-11-09T04:35:48.081Z,10.60
2022-11-09T04:38:16.881Z,9.67
2022-11-09T04:40:45.441Z,10.00
2022-11-09T04:43:16.199Z,10.27
2022-11-09T04:45:44.851Z,9.93
2022-11-09T04:48:14.999Z,10.17
2022-11-09T04:50:43.604Z,9.53
2022-11-09T04:53:15.553Z,9.57
2022-11-09T04:55:44.913Z,9.37
2022-11-09T04:58:13.445Z,10.00
2022-11-09T05:00:42.163Z,9.37
2022-11-09T05:03:10.830Z,9.13
2022-11-09T05:05:48.003Z,9.43
2022-11-09T05:08:17.102Z,9.20
2022-11-09T05:10:45.782Z,8.73
2022-11-09T05:13:15.349Z,9.33
2022-11-09T05:15:45.905Z,8.63
2022-11-09T05:18:14.491Z,8.93
2022-11-09T05:20:44.541Z,8.70
2022-11-09T05:23:41.981Z,8.70
2022-11-09T05:26:10.571Z,8.70
2022-11-09T05:28:39.332Z,9.20
2022-11-09T05:31:08.382Z,8.77
2022-11-09T05:33:36.935Z,8.20
2022-11-09T05:36:12.152Z,9.27
2022-11-09T05:38:40.722Z,9.17
2022-11-09T05:41:11.351Z,9.27
2022-11-09T05:43:40.261Z,8.73
2022-11-09T05:46:09.592Z,8.87
2022-11-09T05:48:38.194Z,8.53
2022-11-09T05:51:09.615Z,9.13
2022-11-09T05:53:41.132Z,9.27
2022-11-09T05:56:14.842Z,8.63
2022-11-09T05:58:43.658Z,8.93
2022-11-09T06:01:14.054Z,8.23
2022-11-09T06:03:44.435Z,9.03
2022-11-09T06:06:16.329Z,8.40
2022-11-09T06:08:45.038Z,8.57
2022-11-09T06:11:18.478Z,8.47
2022-11-09T06:13:51.780Z,8.53
2022-11-09T06:16:20.405Z,8.80
2022-11-09T06:18:49.054Z,7.77
2022-11-09T06:21:19.140Z,8.87
2022-11-09T06:23:47.820Z,9.93
2022-11-09T06:26:16.423Z,9.03
2022-11-09T06:28:45.118Z,9.03
2022-11-09T06:31:15.599Z,8.93
2022-11-09T06:33:44.169Z,8.90
2022-11-09T06:36:13.377Z,9.10
2022-11-09T06:38:43.571Z,9.70
2022-11-09T06:41:12.554Z,9.27
2022-11-09T06:43:41.683Z,9.23
2022-11-09T06:46:11.021Z,9.50
2022-11-09T06:48:39.611Z,8.90
2022-11-09T06:51:08.692Z,9.80
2022-11-09T06:53:38.088Z,10.67
2022-11-09T06:56:09.671Z,9.77
2022-11-09T06:58:38.512Z,9.90
2022-11-09T07:01:11.362Z,10.13
2022-11-09T07:03:40.630Z,9.10
2022-11-09T07:06:13.065Z,9.20
2022-11-09T07:08:42.338Z,9.93
2022-11-09T07:11:16.315Z,9.50
2022-11-09T07:13:44.969Z,9.00
2022-11-09T07:16:19.316Z,8.60
2022-11-09T07:18:48.188Z,9.23
2022-11-09T07:21:16.757Z,8.83
2022-11-09T07:23:45.437Z,8.83
2022-11-09T07:26:15.400Z,9.33
2022-11-09T07:28:44.307Z,8.90
2022-11-09T07:31:14.291Z,8.80
2022-11-09T07:33:42.826Z,8.70
2022-11-09T07:36:11.386Z,8.40
2022-11-09T07:38:39.946Z,8.80
2022-11-09T07:41:08.538Z,8.13
2022-11-09T07:43:38.497Z,8.80
2022-11-09T07:46:07.391Z,8.43
2022-11-09T07:48:35.949Z,8.90
2022-11-09T07:51:04.688Z,9.47
2022-11-09T07:53:33.451Z,9.43
2022-11-09T07:56:04.368Z,9.73
2022-11-09T07:58:34.417Z,8.97
2022-11-09T08:01:08.943Z,9.37
2022-11-09T08:03:37.846Z,10.37
2022-11-09T08:06:06.627Z,11.13
2022-11-09T08:08:35.245Z,11.20
2022-11-09T08:11:03.816Z,12.17
2022-11-09T08:13:32.425Z,9.70
2022-11-09T08:16:04.383Z,10.23
2022-11-09T08:18:32.975Z,10.73
2022-11-09T08:21:03.906Z,10.63
2022-11-09T08:23:33.637Z,9.80
2022-11-09T08:26:05.437Z,9.70
2022-11-09T08:28:34.900Z,8.87
2022-11-09T08:31:07.048Z,9.83
2022-11-09T08:33:39.271Z,9.30
2022-11-09T08:36:12.205Z,9.30
2022-11-09T08:38:41.229Z,9.00
2022-11-09T08:41:13.425Z,8.80
2022-11-09T08:43:42.712Z,9.57
2022-11-09T08:46:12.728Z,9.70
2022-11-09T08:48:41.265Z,9.60
2022-11-09T08:51:09.854Z,9.20
2022-11-09T08:53:38.454Z,8.50
2022-11-09T08:56:07.934Z,8.47
2022-11-09T08:58:37.143Z,8.40
2022-11-09T09:01:13.907Z,8.70
2022-11-09T09:03:47.724Z,8.70
2022-11-09T09:06:16.300Z,8.83
2022-11-09T09:08:44.857Z,8.93
2022-11-09T09:11:13.434Z,8.60
2022-11-09T09:13:43.613Z,8.73
2022-11-09T09:16:15.775Z,9.03
2022-11-09T09:18:45.753Z,9.60
2022-11-09T09:21:14.326Z,9.10
2022-11-09T09:23:42.894Z,8.00
2022-11-09T09:26:11.454Z,8.40
2022-11-09T09:28:40.757Z,7.80
2022-11-09T09:31:12.052Z,7.40
2022-11-09T09:33:46.567Z,7.30
2022-11-09T09:36:19.035Z,7.97
2022-11-09T09:38:47.810Z,7.73
2022-11-09T09:41:22.874Z,8.17
2022-11-09T09:43:55.354Z,8.80
2022-11-09T09:46:28.058Z,7.80
2022-11-09T09:49:03.103Z,7.83
2022-11-09T09:51:38.654Z,7.67
2022-11-09T09:54:13.411Z,8.50
2022-11-09T09:56:44.842Z,8.73
2022-11-09T09:59:21.642Z,8.20
2022-11-09T10:01:51.694Z,7.77
2022-11-09T10:04:25.714Z,7.73
2022-11-09T10:07:03.904Z,8.10
2022-11-09T10:09:47.894Z,8.70
2022-11-09T10:12:26.214Z,7.17
2022-11-09T10:15:07.771Z,7.63
2022-11-09T10:17:44.664Z,7.63
2022-11-09T10:20:31.235Z,8.43
2022-11-09T10:23:18.594Z,8.17
2022-11-09T10:26:03.473Z,8.53
2022-11-09T10:29:01.614Z,8.87
2022-11-09T10:31:33.831Z,9.47
2022-11-09T10:34:13.505Z,9.60
2022-11-09T10:36:47.954Z,9.30
2022-11-09T10:39:17.135Z,9.17
2022-11-09T10:42:04.634Z,9.20
2022-11-09T10:44:52.076Z,9.67
2022-11-09T10:47:50.713Z,10.27
2022-11-09T10:50:40.632Z,10.30
2022-11-09T10:53:32.484Z,10.60
2022-11-09T10:56:22.173Z,11.30
2022-11-09T10:59:37.790Z,11.43
2022-11-09T11:02:48.224Z,14.40
2022-11-09T11:05:38.029Z,12.00
2022-11-09T11:08:33.187Z,12.80
2022-11-09T11:11:36.880Z,12.10
2022-11-09T11:14:31.562Z,12.37
2022-11-09T11:17:27.477Z,11.50
2022-11-09T11:20:32.431Z,12.47
2022-11-09T11:23:22.508Z,13.00
2022-11-09T11:26:28.155Z,13.33
2022-11-09T11:29:33.747Z,12.93
2022-11-09T11:32:24.484Z,12.73
2022-11-09T11:35:15.941Z,13.77
2022-11-09T11:38:16.359Z,12.70
2022-11-09T11:41:12.487Z,13.53
2022-11-09T11:44:09.630Z,12.50
2022-11-09T11:47:16.779Z,14.27
2022-11-09T11:50:37.035Z,13.50
2022-11-09T11:53:43.632Z,14.33
2022-11-09T11:56:35.220Z,14.20
2022-11-09T11:59:49.151Z,14.07
2022-11-09T12:03:15.065Z,14.73
2022-11-09T12:06:24.934Z,16.23
2022-11-09T12:09:36.685Z,15.77
2022-11-09T12:12:35.497Z,14.93
2022-11-09T12:15:33.378Z,15.63
2022-11-09T12:18:43.309Z,16.87
2022-11-09T12:21:38.665Z,16.90
2022-11-09T12:24:30.733Z,16.70
2022-11-09T12:27:36.643Z,17.40
2022-11-09T12:30:29.385Z,16.98
2022-11-09T12:33:25.229Z,18.65
2022-11-09T12:36:19.845Z,17.85
2022-11-09T12:39:12.912Z,19.42
2022-11-09T12:42:06.828Z,18.02
2022-11-09T12:45:03.157Z,19.17
2022-11-09T12:47:54.828Z,18.85
2022-11-09T12:50:44.913Z,19.33
2022-11-09T12:53:36.664Z,19.63
2022-11-09T12:56:26.814Z,19.67
2022-11-09T12:59:35.554Z,20.90
2022-11-09T13:02:28.633Z,21.38
2022-11-09T13:05:32.143Z,22.17
2022-11-09T13:08:22.413Z,20.58
2022-11-09T13:11:12.406Z,21.25
2022-11-09T13:14:35.507Z,22.35
2022-11-09T13:17:59.294Z,22.20
2022-11-09T13:20:55.215Z,23.10
2022-11-09T13:24:03.479Z,21.60
2022-11-09T13:26:58.574Z,22.37
2022-11-09T13:29:56.120Z,21.17
2022-11-09T13:33:20.595Z,22.77
2022-11-09T13:36:23.954Z,21.55
2022-11-09T13:39:30.226Z,21.70
2022-11-09T13:42:32.446Z,21.02
2022-11-09T13:45:31.310Z,22.25
2022-11-09T13:48:39.373Z,22.85
2022-11-09T13:51:43.493Z,21.00
2022-11-09T13:54:32.764Z,22.92
2022-11-09T13:57:20.334Z,22.33
2022-11-09T14:00:18.935Z,23.83
2022-11-09T14:03:17.573Z,20.60
2022-11-09T14:06:07.244Z,21.73
2022-11-09T14:08:55.835Z,20.80
2022-11-09T14:12:00.252Z,21.05
2022-11-09T14:15:05.046Z,21.35
2022-11-09T14:18:04.560Z,21.02
2022-11-09T14:20:57.622Z,20.35
2022-11-09T14:23:45.025Z,20.85
2022-11-09T14:26:33.819Z,20.25
2022-11-09T14:29:23.211Z,20.92
2022-11-09T14:32:30.361Z,20.42
2022-11-09T14:35:23.876Z,21.00
2022-11-09T14:38:19.181Z,21.15
2022-11-09T14:41:07.045Z,22.17
2022-11-09T14:43:58.135Z,22.42
2022-11-09T14:46:45.506Z,22.38
2022-11-09T14:49:32.923Z,21.75
2022-11-09T14:52:30.076Z,22.95
2022-11-09T14:55:20.035Z,22.73
2022-11-09T14:58:07.057Z,24.15
2022-11-09T15:01:21.714Z,23.73
2022-11-09T15:04:12.374Z,23.93
2022-11-09T15:07:02.533Z,23.07
2022-11-09T15:09:52.256Z,24.37
2022-11-09T15:12:46.273Z,23.43
2022-11-09T15:15:35.891Z,22.20
2022-11-09T15:18:33.568Z,22.17
2022-11-09T15:21:33.474Z,22.80
2022-11-09T15:24:22.274Z,22.60
2022-11-09T15:27:31.925Z,24.63
2022-11-09T15:30:30.594Z,25.23
2022-11-09T15:33:28.901Z,26.57
2022-11-09T15:36:26.359Z,24.70
2022-11-09T15:39:17.321Z,24.03
2022-11-09T15:42:04.813Z,23.83
2022-11-09T15:44:56.600Z,24.50
2022-11-09T15:47:49.795Z,26.50
2022-11-09T15:50:38.916Z,26.43
2022-11-09T15:53:26.303Z,24.53
2022-11-09T15:56:17.718Z,25.40
2022-11-09T15:59:04.893Z,26.30
2022-11-09T16:01:52.623Z,27.13
2022-11-09T16:04:39.723Z,26.67
2022-11-09T16:07:28.553Z,24.37
2022-11-09T16:10:15.994Z,25.30
2022-11-09T16:13:03.503Z,26.13
2022-11-09T16:15:50.353Z,27.00
2022-11-09T16:18:37.853Z,26.87
2022-11-09T16:21:25.613Z,25.30
2022-11-09T16:24:14.253Z,26.53
2022-11-09T16:27:02.420Z,27.43
2022-11-09T16:29:51.726Z,26.53
2022-11-09T16:32:39.611Z,28.70
2022-11-09T16:35:28.325Z,27.23
2022-11-09T16:38:15.993Z,27.07
2022-11-09T16:41:05.510Z,32.87
2022-11-09T16:43:54.800Z,36.50
2022-11-09T16:46:45.071Z,34.20
2022-11-09T16:49:33.210Z,41.33
2022-11-09T16:52:20.343Z,34.47
2022-11-09T16:55:09.616Z,31.00
2022-11-09T16:57:58.452Z,28.57
2022-11-09T17:03:55.920Z,32.03
2022-11-09T17:06:43.042Z,32.87
2022-11-09T17:09:34.040Z,34.13
2022-11-09T17:12:21.191Z,34.03
2022-11-09T17:15:11.281Z,35.63
2022-11-09T17:17:58.851Z,38.53
2022-11-09T17:20:47.291Z,34.30
2022-11-09T17:23:34.570Z,34.03
2022-11-09T17:26:23.050Z,31.57
2022-11-09T17:29:12.890Z,30.90
2022-11-09T17:32:01.720Z,30.87
2022-11-09T17:34:48.979Z,32.70
2022-11-09T17:37:36.043Z,31.70
2022-11-09T17:40:23.057Z,33.43
2022-11-09T17:43:10.521Z,32.03
2022-11-09T17:45:57.581Z,32.27
2022-11-09T17:48:48.044Z,32.73
2022-11-09T17:51:35.137Z,32.20
2022-11-09T17:54:22.876Z,33.53
2022-11-09T17:57:10.126Z,34.50
2022-11-09T17:59:57.566Z,32.43
2022-11-09T18:02:44.576Z,34.40
2022-11-09T18:05:33.145Z,33.40
2022-11-09T18:08:21.286Z,32.37
2022-11-09T18:11:09.254Z,33.90
2022-11-09T18:13:56.562Z,32.50
2022-11-09T18:16:43.771Z,33.90
2022-11-09T18:19:30.874Z,35.33
2022-11-09T18:22:19.677Z,34.20
2022-11-09T18:25:07.726Z,37.20
2022-11-09T18:27:55.094Z,38.37
2022-11-09T18:30:44.306Z,35.63
2022-11-09T18:33:32.335Z,36.57
2022-11-09T18:36:21.807Z,36.93
2022-11-09T18:39:11.482Z,38.43
2022-11-09T18:42:00.534Z,37.83
2022-11-09T18:44:49.651Z,45.53
2022-11-09T18:47:36.850Z,39.17
2022-11-09T18:50:23.964Z,34.60
2022-11-09T18:53:14.745Z,35.23
2022-11-09T18:56:07.004Z,33.27
2022-11-09T18:58:55.835Z,30.37
2022-11-09T19:01:43.194Z,31.93
2022-11-09T19:04:30.445Z,32.43
2022-11-09T19:07:18.303Z,35.33
2022-11-09T19:10:05.794Z,34.40
2022-11-09T19:12:55.415Z,36.97
2022-11-09T19:15:44.521Z,33.47
2022-11-09T19:18:31.954Z,79.17
2022-11-09T19:21:36.508Z,92.23
2022-11-09T19:24:26.851Z,41.87
2022-11-09T19:27:14.285Z,35.90
2022-11-09T19:30:08.979Z,34.73
2022-11-09T19:32:56.588Z,32.53
2022-11-09T19:35:45.044Z,30.80
2022-11-09T19:38:36.656Z,32.73
2022-11-09T19:41:26.561Z,36.30
2022-11-09T19:44:15.125Z,41.30
2022-11-09T19:47:03.978Z,33.47
2022-11-09T19:49:53.382Z,32.23
2022-11-09T19:52:40.623Z,30.70
2022-11-09T19:55:28.989Z,31.67
2022-11-09T19:58:18.486Z,33.10
2022-11-09T20:01:06.818Z,30.63
2022-11-09T20:03:57.729Z,31.43
2022-11-09T20:06:44.985Z,33.20
2022-11-09T20:09:33.235Z,32.40
2022-11-09T20:12:37.656Z,35.07
2022-11-09T20:15:25.275Z,33.90
2022-11-09T20:18:12.757Z,34.97
2022-11-09T20:21:01.636Z,36.93
2022-11-09T20:23:49.335Z,33.90
2022-11-09T20:26:36.936Z,33.53
2022-11-09T20:29:24.507Z,32.53
2022-11-09T20:32:12.557Z,35.17
2022-11-09T20:35:00.776Z,35.67
2022-11-09T20:37:49.625Z,36.50
2022-11-09T20:40:39.066Z,34.83
2022-11-09T20:43:30.276Z,32.90
2022-11-09T20:46:19.929Z,31.27
2022-11-09T20:49:07.537Z,31.07
2022-11-09T20:51:54.945Z,30.53
2022-11-09T20:54:45.843Z,32.87
2022-11-09T20:57:34.073Z,33.17
2022-11-09T21:00:24.385Z,35.77
2022-11-09T21:03:12.387Z,31.33
2022-11-09T21:06:00.449Z,29.23
2022-11-09T21:08:50.230Z,30.43
2022-11-09T21:11:59.637Z,28.87
2022-11-09T21:14:46.804Z,34.73
2022-11-09T21:17:34.217Z,38.20
2022-11-09T21:20:21.517Z,33.80
2022-11-09T21:23:27.549Z,33.80
2022-11-09T21:26:32.114Z,30.40
2022-11-09T21:29:40.034Z,32.10
2022-11-09T21:32:27.448Z,38.03
2022-11-09T21:35:14.772Z,35.67
2022-11-09T21:38:02.060Z,35.30
2022-11-09T21:40:49.540Z,36.30
2022-11-09T21:43:36.889Z,35.83
2022-11-09T21:46:26.311Z,33.37
2022-11-09T21:49:14.518Z,32.30
2022-11-09T21:52:06.782Z,31.43
2022-11-09T21:54:54.193Z,33.90
2022-11-09T21:57:41.650Z,32.73
2022-11-09T22:00:30.706Z,32.53
2022-11-09T22:03:19.885Z,34.13
2022-11-09T22:06:07.880Z,35.53
2022-11-09T22:08:56.204Z,34.43
2022-11-09T22:12:03.574Z,35.93
2022-11-09T22:15:10.396Z,35.13
2022-11-09T22:17:58.252Z,34.43
2022-11-09T22:20:55.862Z,34.77
2022-11-09T22:23:43.082Z,36.07
2022-11-09T22:26:31.981Z,34.73
2022-11-09T22:29:19.276Z,37.03
2022-11-09T22:32:07.289Z,35.70
2022-11-09T22:34:54.466Z,36.83
2022-11-09T22:37:43.467Z,36.87
2022-11-09T22:40:30.876Z,38.50
2022-11-09T22:43:20.714Z,38.90
2022-11-09T22:46:09.732Z,37.00
2022-11-09T22:48:57.196Z,38.73
2022-11-09T22:51:44.364Z,37.37
2022-11-09T22:54:33.285Z,40.07
2022-11-09T22:57:20.294Z,39.63
2022-11-09T23:00:11.025Z,41.03
2022-11-09T23:02:58.956Z,39.23
2022-11-09T23:05:46.748Z,38.40
2022-11-09T23:08:38.139Z,39.37
2022-11-09T23:11:26.935Z,39.23
2022-11-09T23:14:14.014Z,39.53
2022-11-09T23:17:23.413Z,41.87
2022-11-09T23:20:11.429Z,41.60
2022-11-09T23:22:58.683Z,43.20
2022-11-09T23:25:57.920Z,46.70
2022-11-09T23:28:46.780Z,43.50
2022-11-09T23:31:33.950Z,46.03
2022-11-09T23:34:20.937Z,47.73
2022-11-09T23:37:10.116Z,45.10
2022-11-09T23:39:59.587Z,45.23
2022-11-09T23:42:47.018Z,45.70
2022-11-09T23:45:37.157Z,48.17
2022-11-09T23:48:24.338Z,48.20
2022-11-09T23:51:11.435Z,46.77
2022-11-09T23:53:58.932Z,46.03
2022-11-09T23:57:04.979Z,45.57
2022-11-09T23:59:52.298Z,48.40
